createdAt,value
2023-01-12T00:01:31.769Z,3.98
2023-01-12T00:03:58.848Z,3.96
2023-01-12T00:06:25.641Z,3.94
2023-01-12T00:08:52.370Z,3.95
2023-01-12T00:11:19.928Z,3.93
2023-01-12T00:13:46.337Z,3.94
2023-01-12T00:16:37.026Z,3.96
2023-01-12T00:19:12.326Z,3.95
2023-01-12T00:21:53.649Z,3.96
2023-01-12T00:24:20.014Z,3.96
2023-01-12T00:26:47.867Z,3.97
2023-01-12T00:29:15.234Z,3.98
2023-01-12T00:31:41.787Z,3.99
2023-01-12T00:34:08.473Z,3.98
2023-01-12T00:36:35.002Z,4.00
2023-01-12T00:39:01.399Z,4.01
2023-01-12T00:41:46.440Z,4.02
2023-01-12T00:44:31.343Z,4.04
2023-01-12T00:46:57.721Z,4.05
2023-01-12T00:49:24.081Z,4.09
2023-01-12T00:51:50.414Z,4.11
2023-01-12T00:54:16.742Z,4.14
2023-01-12T00:56:43.111Z,4.15
2023-01-12T00:59:09.448Z,4.18
2023-01-12T01:01:35.820Z,4.22
2023-01-12T01:04:02.223Z,4.24
2023-01-12T01:06:28.555Z,4.26
2023-01-12T01:08:54.816Z,4.28
2023-01-12T01:11:21.507Z,4.28
2023-01-12T01:13:48.419Z,4.31
2023-01-12T01:16:16.524Z,4.34
2023-01-12T01:18:43.140Z,4.36
2023-01-12T01:21:11.162Z,4.39
2023-01-12T01:23:37.977Z,4.40
2023-01-12T01:26:10.511Z,4.42
2023-01-12T01:28:36.906Z,4.44
2023-01-12T01:31:09.212Z,4.44
2023-01-12T01:33:35.770Z,4.47
2023-01-12T01:36:03.092Z,4.48
2023-01-12T01:38:29.554Z,4.49
2023-01-12T01:40:56.298Z,4.50
2023-01-12T01:43:25.182Z,4.53
2023-01-12T01:46:00.799Z,4.55
2023-01-12T01:48:28.865Z,4.53
2023-01-12T01:51:01.183Z,4.55
2023-01-12T01:53:31.506Z,4.55
2023-01-12T01:56:06.044Z,4.56
2023-01-12T01:58:38.544Z,4.56
2023-01-12T02:01:05.795Z,4.56
2023-01-12T02:03:36.612Z,4.56
2023-01-12T02:06:06.120Z,4.58
2023-01-12T02:08:53.726Z,4.59
2023-01-12T02:11:39.920Z,4.61
2023-01-12T02:14:24.990Z,4.61
2023-01-12T02:16:57.617Z,4.62
2023-01-12T02:19:45.231Z,4.65
2023-01-12T02:22:30.323Z,4.66
2023-01-12T02:25:24.558Z,4.68
2023-01-12T02:28:16.492Z,4.70
2023-01-12T02:31:21.446Z,4.72
2023-01-12T02:34:03.298Z,4.74
2023-01-12T02:37:21.170Z,4.76
2023-01-12T02:39:58.269Z,4.83
2023-01-12T02:42:42.665Z,4.83
2023-01-12T02:45:27.728Z,4.84
2023-01-12T02:48:06.326Z,4.87
2023-01-12T02:50:54.534Z,4.89
2023-01-12T02:53:37.892Z,4.91
2023-01-12T02:56:06.989Z,4.92
2023-01-12T02:58:43.340Z,4.96
2023-01-12T03:01:11.374Z,4.96
2023-01-12T03:03:39.120Z,4.98
2023-01-12T03:06:06.695Z,5.01
2023-01-12T03:08:36.893Z,5.04
2023-01-12T03:11:14.596Z,5.04
2023-01-12T03:13:46.343Z,5.07
2023-01-12T03:16:15.268Z,5.07
2023-01-12T03:19:01.590Z,5.11
2023-01-12T03:21:38.176Z,5.14
2023-01-12T03:24:09.462Z,5.15
2023-01-12T03:26:40.828Z,5.16
2023-01-12T03:29:13.019Z,5.19
2023-01-12T03:31:40.185Z,5.21
2023-01-12T03:34:06.981Z,5.23
2023-01-12T03:36:52.755Z,5.26
2023-01-12T03:39:29.746Z,5.30
2023-01-12T03:42:05.931Z,5.33
2023-01-12T03:44:39.380Z,5.34
2023-01-12T03:47:28.764Z,5.38
2023-01-12T03:50:17.148Z,5.41
2023-01-12T03:52:45.267Z,5.43
2023-01-12T03:55:16.233Z,5.46
2023-01-12T03:57:44.035Z,5.49
2023-01-12T04:00:12.441Z,5.52
2023-01-12T04:02:45.928Z,5.54
2023-01-12T04:05:14.177Z,5.57
2023-01-12T04:07:40.476Z,5.60
2023-01-12T04:10:07.550Z,5.62
2023-01-12T04:12:33.772Z,5.63
2023-01-12T04:15:00.032Z,5.66
2023-01-12T04:17:27.343Z,5.70
2023-01-12T04:19:53.602Z,5.70
2023-01-12T04:22:38.608Z,5.71
2023-01-12T04:25:05.146Z,5.75
2023-01-12T04:27:31.358Z,5.74
2023-01-12T04:29:57.918Z,5.78
2023-01-12T04:32:24.453Z,5.78
2023-01-12T04:34:50.772Z,5.79
2023-01-12T04:37:18.018Z,5.82
2023-01-12T04:39:44.295Z,5.83
2023-01-12T04:42:30.593Z,5.85
2023-01-12T04:44:56.860Z,5.87
2023-01-12T04:47:23.182Z,5.89
2023-01-12T04:49:49.419Z,5.91
2023-01-12T04:52:15.760Z,5.92
2023-01-12T04:54:41.990Z,5.96
2023-01-12T04:57:08.372Z,5.95
2023-01-12T04:59:34.814Z,5.96
2023-01-12T05:02:01.198Z,5.97
2023-01-12T05:04:27.697Z,5.97
2023-01-12T05:06:54.119Z,5.97
2023-01-12T05:09:38.746Z,5.98
2023-01-12T05:12:05.244Z,6.01
2023-01-12T05:14:31.491Z,6.01
2023-01-12T05:16:58.850Z,6.02
2023-01-12T05:19:25.153Z,6.03
2023-01-12T05:21:51.456Z,6.06
2023-01-12T05:24:18.015Z,6.08
2023-01-12T05:26:44.494Z,6.09
2023-01-12T05:29:11.176Z,6.10
2023-01-12T05:31:37.575Z,6.12
2023-01-12T05:34:04.002Z,6.14
2023-01-12T05:36:30.307Z,6.13
2023-01-12T05:38:56.687Z,6.16
2023-01-12T05:41:23.002Z,6.17
2023-01-12T05:43:49.684Z,6.18
2023-01-12T05:46:29.992Z,6.22
2023-01-12T05:48:57.374Z,6.25
2023-01-12T05:51:25.526Z,6.28
2023-01-12T05:53:51.807Z,6.30
2023-01-12T05:56:25.046Z,6.32
2023-01-12T05:58:53.809Z,6.35
2023-01-12T06:01:20.805Z,6.36
2023-01-12T06:03:52.176Z,6.37
2023-01-12T06:06:19.579Z,6.36
2023-01-12T06:08:46.402Z,6.38
2023-01-12T06:11:31.951Z,6.39
2023-01-12T06:13:59.845Z,6.40
2023-01-12T06:16:27.273Z,6.41
2023-01-12T06:18:54.014Z,6.42
2023-01-12T06:21:20.451Z,6.41
2023-01-12T06:23:46.701Z,6.42
2023-01-12T06:26:13.133Z,6.43
2023-01-12T06:28:39.974Z,6.44
2023-01-12T06:31:09.244Z,6.44
2023-01-12T06:33:36.066Z,6.46
2023-01-12T06:36:03.393Z,6.45
2023-01-12T06:38:31.723Z,6.47
2023-01-12T06:41:03.659Z,6.45
2023-01-12T06:43:30.116Z,6.46
2023-01-12T06:45:56.643Z,6.45
2023-01-12T06:48:25.178Z,6.46
2023-01-12T06:51:00.448Z,6.48
2023-01-12T06:53:26.831Z,6.48
2023-01-12T06:55:53.089Z,6.50
2023-01-12T06:58:19.418Z,6.50
2023-01-12T07:00:45.780Z,6.52
2023-01-12T07:03:17.612Z,6.49
2023-01-12T07:05:44.619Z,6.49
2023-01-12T07:08:15.172Z,6.49
2023-01-12T07:10:42.290Z,6.48
2023-01-12T07:13:08.670Z,6.48
2023-01-12T07:15:35.221Z,6.47
2023-01-12T07:18:01.817Z,6.49
2023-01-12T07:20:28.235Z,6.52
2023-01-12T07:22:55.170Z,6.51
2023-01-12T07:25:21.478Z,6.52
2023-01-12T07:27:49.625Z,6.54
2023-01-12T07:30:16.022Z,6.55
2023-01-12T07:32:42.293Z,6.54
2023-01-12T07:35:08.746Z,6.56
2023-01-12T07:37:35.138Z,6.58
2023-01-12T07:40:01.360Z,6.60
2023-01-12T07:42:27.782Z,6.60
2023-01-12T07:44:54.171Z,6.62
2023-01-12T07:47:20.521Z,6.60
2023-01-12T07:49:46.820Z,6.63
2023-01-12T07:52:13.742Z,6.66
2023-01-12T07:54:40.104Z,6.65
2023-01-12T07:57:08.447Z,6.68
2023-01-12T07:59:34.764Z,6.68
2023-01-12T08:02:01.148Z,6.68
2023-01-12T08:04:27.483Z,6.69
2023-01-12T08:06:53.782Z,6.73
2023-01-12T08:09:20.034Z,6.75
2023-01-12T08:11:46.325Z,6.75
2023-01-12T08:14:23.595Z,6.77
2023-01-12T08:16:51.119Z,6.77
2023-01-12T08:19:23.169Z,6.78
2023-01-12T08:21:57.907Z,6.77
2023-01-12T08:24:38.993Z,6.75
2023-01-12T08:27:07.561Z,6.77
2023-01-12T08:29:46.538Z,6.76
2023-01-12T08:32:15.563Z,6.73
2023-01-12T08:34:44.149Z,6.69
2023-01-12T08:37:13.408Z,6.69
2023-01-12T08:39:40.379Z,6.69
2023-01-12T08:42:06.987Z,6.74
2023-01-12T08:44:34.758Z,6.89
2023-01-12T08:47:03.258Z,7.17
2023-01-12T09:01:19.883Z,9.73
2023-01-12T09:03:48.552Z,10.13
2023-01-12T09:06:23.768Z,10.35
2023-01-12T09:08:56.552Z,10.39
2023-01-12T09:11:25.782Z,10.74
2023-01-12T09:13:53.537Z,10.97
2023-01-12T09:16:21.551Z,11.11
2023-01-12T09:18:49.241Z,11.07
2023-01-12T09:21:19.490Z,10.89
2023-01-12T09:23:52.662Z,10.63
2023-01-12T09:26:23.595Z,10.59
2023-01-12T09:28:51.637Z,10.72
2023-01-12T09:31:22.700Z,10.77
2023-01-12T09:33:50.582Z,10.82
2023-01-12T09:36:20.991Z,10.92
2023-01-12T09:38:49.909Z,10.97
2023-01-12T09:41:43.322Z,10.92
2023-01-12T09:44:48.490Z,10.81
2023-01-12T09:47:28.193Z,10.57
2023-01-12T09:50:16.405Z,10.34
2023-01-12T09:52:55.695Z,10.10
2023-01-12T09:55:26.149Z,9.93
2023-01-12T09:57:56.604Z,9.73
2023-01-12T10:00:24.539Z,9.56
2023-01-12T10:03:00.028Z,9.41
2023-01-12T10:05:47.819Z,9.30
2023-01-12T10:08:38.201Z,9.19
2023-01-12T10:11:14.060Z,9.08
2023-01-12T10:14:00.297Z,9.11
2023-01-12T10:17:05.528Z,9.23
2023-01-12T10:20:00.069Z,9.58
2023-01-12T10:22:44.027Z,9.93
2023-01-12T10:25:27.363Z,10.20
2023-01-12T10:27:58.036Z,10.28
2023-01-12T10:30:32.081Z,10.38
2023-01-12T10:33:10.640Z,10.40
2023-01-12T10:35:48.654Z,10.42
2023-01-12T10:38:27.345Z,10.45
2023-01-12T10:41:17.234Z,10.35
2023-01-12T10:43:53.060Z,10.31
2023-01-12T10:46:22.406Z,10.20
2023-01-12T10:48:53.073Z,10.07
2023-01-12T10:51:27.918Z,10.02
2023-01-12T10:54:17.653Z,10.02
2023-01-12T10:57:01.966Z,10.03
2023-01-12T10:59:33.187Z,10.07
2023-01-12T11:02:07.267Z,10.05
2023-01-12T11:04:45.626Z,9.95
2023-01-12T11:07:16.481Z,9.92
2023-01-12T11:09:44.391Z,9.86
2023-01-12T11:12:37.904Z,9.85
2023-01-12T11:15:12.101Z,9.76
2023-01-12T11:17:46.970Z,9.67
2023-01-12T11:20:28.680Z,9.64
2023-01-12T11:23:01.172Z,9.64
2023-01-12T11:25:34.347Z,9.61
2023-01-12T11:28:07.395Z,9.53
2023-01-12T11:30:45.926Z,9.49
2023-01-12T11:33:19.943Z,9.48
2023-01-12T11:36:06.491Z,9.52
2023-01-12T11:38:40.940Z,9.55
2023-01-12T11:41:26.948Z,9.56
2023-01-12T11:44:20.058Z,9.54
2023-01-12T11:46:59.284Z,9.49
2023-01-12T11:49:34.736Z,9.41
2023-01-12T11:52:02.986Z,9.39
2023-01-12T11:54:31.879Z,9.40
2023-01-12T11:57:21.040Z,9.33
2023-01-12T11:59:57.919Z,9.29
2023-01-12T12:02:54.530Z,9.26
2023-01-12T12:05:22.119Z,9.24
2023-01-12T12:08:25.294Z,9.20
2023-01-12T12:10:55.948Z,9.14
2023-01-12T12:13:47.503Z,9.11
2023-01-12T12:16:23.447Z,9.04
2023-01-12T12:19:00.169Z,9.00
2023-01-12T12:21:30.582Z,8.93
2023-01-12T12:24:17.016Z,8.89
2023-01-12T12:26:56.380Z,8.87
2023-01-12T12:29:40.241Z,8.85
2023-01-12T12:32:26.984Z,8.85
2023-01-12T12:35:16.089Z,8.82
2023-01-12T12:38:29.592Z,8.81
2023-01-12T12:41:31.321Z,8.80
2023-01-12T12:44:34.383Z,8.76
2023-01-12T12:47:30.620Z,8.75
2023-01-12T12:50:00.661Z,8.71
2023-01-12T12:52:35.995Z,8.74
2023-01-12T12:55:05.035Z,8.74
2023-01-12T12:57:53.030Z,8.77
2023-01-12T13:00:40.264Z,8.81
2023-01-12T13:03:09.457Z,8.81
2023-01-12T13:05:48.212Z,8.83
2023-01-12T13:08:27.362Z,8.84
2023-01-12T13:10:57.720Z,8.83
2023-01-12T13:13:27.411Z,8.84
2023-01-12T13:16:20.472Z,8.83
2023-01-12T13:18:51.418Z,8.84
2023-01-12T13:21:29.093Z,8.84
2023-01-12T13:24:14.948Z,8.83
2023-01-12T13:26:44.636Z,8.81
2023-01-12T13:29:24.557Z,8.79
2023-01-12T13:31:56.631Z,8.78
2023-01-12T13:34:36.601Z,8.76
2023-01-12T13:37:22.408Z,8.71
2023-01-12T13:40:16.437Z,8.66
2023-01-12T13:43:04.253Z,8.63
2023-01-12T13:45:33.523Z,8.63
2023-01-12T13:48:01.380Z,8.60
2023-01-12T13:50:29.549Z,8.56
2023-01-12T13:52:59.612Z,8.55
2023-01-12T13:55:33.547Z,8.52
2023-01-12T13:58:16.857Z,8.49
2023-01-12T14:00:55.388Z,8.46
2023-01-12T14:03:37.416Z,8.44
2023-01-12T14:06:27.457Z,8.38
2023-01-12T14:09:01.377Z,8.38
2023-01-12T14:11:47.127Z,8.34
2023-01-12T14:14:58.040Z,8.29
2023-01-12T14:17:49.206Z,8.22
2023-01-12T14:20:23.781Z,8.20
2023-01-12T14:23:12.760Z,8.12
2023-01-12T14:25:41.039Z,8.07
2023-01-12T14:28:23.149Z,8.04
2023-01-12T14:30:53.243Z,7.99
2023-01-12T14:33:24.954Z,7.95
2023-01-12T14:35:56.193Z,7.89
2023-01-12T14:38:27.822Z,7.84
2023-01-12T14:41:02.517Z,7.79
2023-01-12T14:43:54.037Z,7.74
2023-01-12T14:46:33.906Z,7.65
2023-01-12T14:49:04.045Z,7.60
2023-01-12T14:51:35.628Z,7.53
2023-01-12T14:54:06.295Z,7.49
2023-01-12T14:56:50.231Z,7.43
2023-01-12T14:59:23.684Z,7.35
2023-01-12T15:02:07.729Z,7.31
2023-01-12T15:04:35.490Z,7.25
2023-01-12T15:07:08.273Z,7.16
2023-01-12T15:09:56.093Z,7.10
2023-01-12T15:12:30.488Z,7.03
2023-01-12T15:15:18.232Z,6.99
2023-01-12T15:18:05.397Z,6.92
2023-01-12T15:21:02.999Z,6.87
2023-01-12T15:23:54.595Z,6.82
2023-01-12T15:26:22.672Z,6.79
2023-01-12T15:28:50.888Z,6.76
2023-01-12T15:31:21.406Z,6.74
2023-01-12T15:33:49.220Z,6.73
2023-01-12T15:36:17.203Z,6.73
2023-01-12T15:38:44.874Z,6.72
2023-01-12T15:41:41.314Z,6.73
2023-01-12T15:44:20.507Z,6.69
2023-01-12T15:46:48.353Z,6.69
2023-01-12T15:49:16.408Z,6.67
2023-01-12T15:51:47.553Z,6.64
2023-01-12T15:54:18.265Z,6.64
2023-01-12T15:56:46.710Z,6.58
2023-01-12T15:59:14.812Z,6.57
2023-01-12T16:01:47.976Z,6.52
2023-01-12T16:04:45.800Z,6.49
2023-01-12T16:07:05.787Z,6.47
2023-01-12T16:09:33.538Z,6.45
2023-01-12T16:12:01.217Z,6.40
2023-01-12T16:14:28.951Z,6.38
2023-01-12T16:16:56.583Z,6.31
2023-01-12T16:19:24.310Z,6.28
2023-01-12T16:21:54.950Z,6.26
2023-01-12T16:24:26.577Z,6.24
2023-01-12T16:26:54.463Z,6.23
2023-01-12T16:29:23.725Z,6.19
2023-01-12T16:31:51.680Z,6.19
2023-01-12T16:34:22.841Z,6.17
2023-01-12T16:36:50.829Z,6.15
2023-01-12T16:39:18.813Z,6.12
2023-01-12T16:41:46.707Z,6.09
2023-01-12T16:44:14.414Z,6.02
2023-01-12T16:46:42.809Z,5.98
2023-01-12T16:49:10.543Z,5.95
2023-01-12T16:51:38.300Z,5.92
2023-01-12T16:54:06.044Z,5.87
2023-01-12T16:56:33.705Z,5.85
2023-01-12T16:59:01.489Z,5.83
2023-01-12T17:01:29.975Z,5.80
2023-01-12T17:03:58.153Z,5.77
2023-01-12T17:06:27.994Z,5.75
2023-01-12T17:08:55.955Z,5.70
2023-01-12T17:11:24.310Z,5.69
2023-01-12T17:13:54.744Z,5.68
2023-01-12T17:16:24.751Z,5.63
2023-01-12T17:18:53.754Z,5.60
2023-01-12T17:21:22.115Z,5.59
2023-01-12T17:23:49.954Z,5.56
2023-01-12T17:26:19.099Z,5.56
2023-01-12T17:28:47.333Z,5.53
2023-01-12T17:31:17.695Z,5.53
2023-01-12T17:33:46.937Z,5.53
2023-01-12T17:36:14.852Z,5.52
2023-01-12T17:38:42.566Z,5.52
2023-01-12T17:41:35.177Z,5.53
2023-01-12T17:44:05.159Z,5.54
2023-01-12T17:46:34.159Z,5.56
2023-01-12T17:49:06.662Z,5.57
2023-01-12T17:51:35.007Z,5.59
2023-01-12T17:54:04.685Z,5.61
2023-01-12T17:56:33.868Z,5.63
2023-01-12T17:59:03.074Z,5.62
2023-01-12T18:01:34.550Z,5.65
2023-01-12T18:04:03.128Z,5.63
2023-01-12T18:06:31.026Z,5.66
2023-01-12T18:09:01.463Z,5.66
2023-01-12T18:11:31.227Z,5.65
2023-01-12T18:14:01.188Z,5.67
2023-01-12T18:16:29.768Z,5.68
2023-01-12T18:18:58.185Z,5.71
2023-01-12T18:21:27.644Z,5.72
2023-01-12T18:23:56.369Z,5.76
2023-01-12T18:26:27.107Z,5.79
2023-01-12T18:28:56.501Z,5.80
2023-01-12T18:31:28.538Z,5.83
2023-01-12T18:34:01.877Z,5.85
2023-01-12T18:36:30.865Z,5.88
2023-01-12T18:38:59.040Z,5.92
2023-01-12T18:41:45.797Z,5.94
2023-01-12T18:44:13.806Z,5.96
2023-01-12T18:47:09.542Z,5.97
2023-01-12T18:49:39.468Z,5.98
2023-01-12T18:52:30.428Z,5.99
2023-01-12T18:54:58.992Z,6.00
2023-01-12T18:57:29.813Z,6.00
2023-01-12T19:00:00.516Z,6.02
2023-01-12T19:02:29.929Z,6.02
2023-01-12T19:05:16.934Z,6.01
2023-01-12T19:07:59.862Z,6.02
2023-01-12T19:10:29.020Z,6.03
2023-01-12T19:13:17.317Z,6.04
2023-01-12T19:16:03.644Z,6.03
2023-01-12T19:18:31.572Z,6.01
2023-01-12T19:21:22.286Z,6.01
2023-01-12T19:24:08.769Z,5.99
2023-01-12T19:26:55.092Z,5.98
2023-01-12T19:29:22.765Z,5.96
2023-01-12T19:31:50.504Z,5.95
2023-01-12T19:34:18.869Z,5.96
2023-01-12T19:36:46.620Z,5.96
2023-01-12T19:39:15.285Z,5.96
2023-01-12T19:42:03.755Z,5.95
2023-01-12T19:44:31.476Z,5.95
2023-01-12T19:46:59.158Z,5.95
2023-01-12T19:49:26.864Z,5.94
2023-01-12T19:51:54.703Z,5.95
2023-01-12T19:54:22.409Z,5.95
2023-01-12T19:56:50.183Z,5.95
2023-01-12T19:59:18.273Z,5.96
2023-01-12T20:01:46.143Z,5.98
2023-01-12T20:04:14.160Z,6.00
2023-01-12T20:06:43.384Z,6.04
2023-01-12T20:09:12.266Z,6.04
2023-01-12T20:11:41.056Z,6.07
2023-01-12T20:14:08.962Z,6.07
2023-01-12T20:16:36.842Z,6.08
2023-01-12T20:19:04.580Z,6.10
2023-01-12T20:21:32.626Z,6.12
2023-01-12T20:24:03.153Z,6.12
2023-01-12T20:26:31.418Z,6.12
2023-01-12T20:28:59.841Z,6.14
2023-01-12T20:31:28.058Z,6.12
2023-01-12T20:33:55.781Z,6.12
2023-01-12T20:36:23.521Z,6.14
2023-01-12T20:38:51.858Z,6.15
2023-01-12T20:41:19.982Z,6.16
2023-01-12T20:43:47.792Z,6.19
2023-01-12T20:46:16.211Z,6.19
2023-01-12T20:48:45.006Z,6.20
2023-01-12T20:51:15.850Z,6.22
2023-01-12T20:53:44.213Z,6.23
2023-01-12T20:56:12.344Z,6.25
2023-01-12T20:58:40.288Z,6.27
2023-01-12T21:01:10.357Z,6.31
2023-01-12T21:03:38.551Z,6.33
2023-01-12T21:06:10.930Z,6.37
2023-01-12T21:08:40.010Z,6.39
2023-01-12T21:11:07.736Z,6.41
2023-01-12T21:13:36.212Z,6.47
2023-01-12T21:16:06.985Z,6.50
2023-01-12T21:18:35.200Z,6.53
2023-01-12T21:21:03.399Z,6.54
2023-01-12T21:23:31.641Z,6.57
2023-01-12T21:25:59.625Z,6.60
2023-01-12T21:28:30.207Z,6.62
2023-01-12T21:31:03.068Z,6.67
2023-01-12T21:33:30.990Z,6.67
2023-01-12T21:35:59.186Z,6.67
2023-01-12T21:38:27.685Z,6.68
2023-01-12T21:40:55.760Z,6.68
2023-01-12T21:43:23.493Z,6.68
2023-01-12T21:45:52.765Z,6.68
2023-01-12T21:48:22.842Z,6.68
2023-01-12T21:50:50.921Z,6.68
2023-01-12T21:53:21.573Z,6.67
2023-01-12T21:55:55.491Z,6.67
2023-01-12T21:58:24.386Z,6.67
2023-01-12T22:00:52.239Z,6.66
2023-01-12T22:03:23.752Z,6.63
2023-01-12T22:05:51.622Z,6.61
2023-01-12T22:08:19.684Z,6.59
2023-01-12T22:10:48.078Z,6.58
2023-01-12T22:13:17.319Z,6.56
2023-01-12T22:15:46.216Z,6.56
2023-01-12T22:18:13.853Z,6.53
2023-01-12T22:20:42.208Z,6.52
2023-01-12T22:23:13.054Z,6.48
2023-01-12T22:25:40.943Z,6.48
2023-01-12T22:28:08.599Z,6.44
2023-01-12T22:30:36.369Z,6.42
2023-01-12T22:33:04.212Z,6.41
2023-01-12T22:35:31.939Z,6.41
2023-01-12T22:37:59.581Z,6.40
2023-01-12T22:40:27.240Z,6.40
2023-01-12T22:43:13.625Z,6.41
2023-01-12T22:45:41.303Z,6.41
2023-01-12T22:48:08.998Z,6.41
2023-01-12T22:50:36.813Z,6.41
2023-01-12T22:53:04.468Z,6.42
2023-01-12T22:55:32.257Z,6.42
2023-01-12T22:58:00.445Z,6.45
2023-01-12T23:00:28.394Z,6.46
2023-01-12T23:03:02.621Z,6.46
2023-01-12T23:05:36.525Z,6.46
2023-01-12T23:08:06.055Z,6.47
2023-01-12T23:10:34.078Z,6.47
2023-01-12T23:13:11.580Z,6.47
2023-01-12T23:15:53.408Z,6.46
2023-01-12T23:18:29.524Z,6.47
2023-01-12T23:21:25.133Z,6.48
2023-01-12T23:23:55.728Z,6.46
2023-01-12T23:26:26.030Z,6.48
2023-01-12T23:28:56.507Z,6.48
2023-01-12T23:31:27.185Z,6.47
2023-01-12T23:33:57.134Z,6.48
2023-01-12T23:36:27.326Z,6.48
2023-01-12T23:38:57.781Z,6.48
2023-01-12T23:41:27.873Z,6.47
2023-01-12T23:43:59.219Z,6.47
2023-01-12T23:46:29.289Z,6.47
2023-01-12T23:48:57.717Z,6.46
2023-01-12T23:51:27.531Z,6.45
2023-01-12T23:53:58.535Z,6.44
2023-01-12T23:56:31.760Z,6.43
2023-01-12T23:58:59.442Z,6.41
